Time;durP1;ratioP1;P1;durP2;ratioP2;P2;SDS_P1;SDS_P2;PMS_P1;PMS_P2;Temp;Humidity;BMP_temperature;BMP_pressure;BME280_temperature;BME280_humidity;BME280_pressure;Samples;Min_cycle;Max_cycle;Signal;HPM_P1;HPM_P2
2022/05/12 00:02:01;;;;;;;5.17;1.40;;;14.60;99.90;;;;;;5013698;28;20373;-53
2022/05/12 00:04:31;;;;;;;5.23;1.63;;;14.50;99.90;;;;;;5014909;28;20256;-54
2022/05/12 00:06:58;;;;;;;5.20;1.53;;;14.50;99.90;;;;;;5020007;28;20326;-54
2022/05/12 00:09:27;;;;;;;6.27;1.70;;;14.50;99.90;;;;;;5010131;28;20641;-53
2022/05/12 00:11:53;;;;;;;7.30;1.90;;;14.60;99.90;;;;;;5014376;28;20294;-54
2022/05/12 00:14:21;;;;;;;9.03;1.73;;;14.30;99.90;;;;;;5014699;28;21804;-54
2022/05/12 00:16:49;;;;;;;4.77;1.70;;;14.30;99.90;;;;;;5014408;28;20712;-54
2022/05/12 00:19:15;;;;;;;4.77;1.50;;;14.30;99.90;;;;;;5014072;28;20250;-53
2022/05/12 00:21:43;;;;;;;10.23;2.07;;;14.40;99.90;;;;;;5017549;28;20320;-53
2022/05/12 00:24:11;;;;;;;6.93;1.70;;;14.40;99.90;;;;;;5017146;28;20260;-53
2022/05/12 00:26:38;;;;;;;5.20;1.57;;;14.30;99.90;;;;;;5018905;28;20196;-54
2022/05/12 00:29:06;;;;;;;3.87;1.23;;;14.40;99.90;;;;;;5017097;28;20204;-52
2022/05/12 00:31:37;;;;;;;3.27;1.87;;;14.30;99.90;;;;;;5019287;28;20203;-52
2022/05/12 00:34:06;;;;;;;4.80;1.40;;;14.20;99.90;;;;;;5018824;28;20206;-53
2022/05/12 00:36:33;;;;;;;2.93;1.33;;;14.10;99.90;;;;;;5022064;28;20293;-53
2022/05/12 00:39:00;;;;;;;7.40;1.37;;;14.10;99.90;;;;;;5018063;28;20296;-53
2022/05/12 00:41:27;;;;;;;5.20;1.23;;;14.20;99.90;;;;;;5017608;28;20616;-54
2022/05/12 00:43:56;;;;;;;7.50;2.07;;;14.30;99.90;;;;;;5015886;28;20290;-53
2022/05/12 00:46:26;;;;;;;3.40;1.30;;;14.20;99.90;;;;;;5021571;28;20237;-52
2022/05/12 00:49:00;;;;;;;5.07;1.17;;;14.20;99.90;;;;;;5014577;28;20199;-53
2022/05/12 00:51:32;;;;;;;4.33;1.40;;;14.30;99.90;;;;;;5015836;28;20296;-53
2022/05/12 00:54:02;;;;;;;3.43;1.30;;;14.30;99.90;;;;;;5014930;28;20688;-53
2022/05/12 00:56:32;;;;;;;2.33;1.30;;;14.30;99.90;;;;;;5016635;28;20252;-52
2022/05/12 00:59:02;;;;;;;4.33;1.37;;;14.00;99.90;;;;;;5016061;28;20460;-53
2022/05/12 01:01:29;;;;;;;2.30;1.37;;;13.90;99.90;;;;;;5013982;28;20632;-54
2022/05/12 01:04:01;;;;;;;5.20;1.67;;;13.80;99.90;;;;;;5014211;28;20294;-53
2022/05/12 01:06:27;;;;;;;3.87;1.50;;;13.50;99.90;;;;;;5016391;28;20285;-53
2022/05/12 01:08:54;;;;;;;4.00;2.17;;;13.40;99.90;;;;;;5015644;28;20224;-52
2022/05/12 01:11:23;;;;;;;2.33;1.43;;;13.30;99.90;;;;;;5013811;28;20580;-56
2022/05/12 01:13:55;;;;;;;4.33;1.60;;;13.30;99.90;;;;;;5012589;28;20943;-53
2022/05/12 01:16:45;;;;;;;3.30;1.40;;;13.30;99.90;;;;;;5016173;28;20312;-54
2022/05/12 01:19:16;;;;;;;5.47;1.50;;;13.30;99.90;;;;;;5012735;28;20192;-53
2022/05/12 01:21:44;;;;;;;4.23;1.33;;;13.40;99.90;;;;;;5012012;28;20304;-53
2022/05/12 01:24:12;;;;;;;2.43;1.30;;;13.40;99.90;;;;;;5012289;28;20197;-53
2022/05/12 01:26:39;;;;;;;4.93;1.30;;;13.20;99.90;;;;;;5018967;28;20687;-52
2022/05/12 01:29:07;;;;;;;2.67;1.50;;;13.10;99.90;;;;;;5017503;28;20668;-52
2022/05/12 01:31:35;;;;;;;2.37;1.20;;;13.10;99.90;;;;;;5018627;28;20640;-53
2022/05/12 01:34:05;;;;;;;4.00;1.13;;;13.20;99.90;;;;;;5019222;28;20919;-53
2022/05/12 01:36:33;;;;;;;3.03;1.03;;;13.20;99.90;;;;;;5021397;28;20191;-54
2022/05/12 01:39:00;;;;;;;4.57;1.20;;;13.30;99.90;;;;;;5016406;28;20223;-53
2022/05/12 01:41:27;;;;;;;3.57;0.97;;;13.30;99.90;;;;;;5018578;28;20236;-53
2022/05/12 01:43:54;;;;;;;3.43;1.30;;;13.20;99.90;;;;;;5016817;28;20699;-53
2022/05/12 01:46:21;;;;;;;1.97;0.83;;;12.90;99.90;;;;;;5014589;28;20248;-53
2022/05/12 01:48:48;;;;;;;2.80;1.10;;;12.90;99.90;;;;;;5015976;28;20217;-53
2022/05/12 01:51:14;;;;;;;3.10;0.90;;;12.70;99.90;;;;;;5016787;28;20308;-53
2022/05/12 01:53:41;;;;;;;2.07;1.00;;;12.90;99.90;;;;;;5016589;28;20218;-53
2022/05/12 01:56:08;;;;;;;2.63;0.90;;;13.00;99.90;;;;;;5016311;28;20305;-53
2022/05/12 01:58:36;;;;;;;3.07;1.77;;;12.90;99.90;;;;;;5017171;28;20270;-53
2022/05/12 02:01:02;;;;;;;2.73;1.00;;;13.10;99.90;;;;;;5012970;28;20233;-52
2022/05/12 02:03:29;;;;;;;1.73;1.00;;;13.00;99.90;;;;;;5015073;28;20230;-52
2022/05/12 02:05:56;;;;;;;2.70;0.90;;;13.20;99.90;;;;;;5019010;28;20303;-54
2022/05/12 02:08:23;;;;;;;1.83;0.97;;;13.10;99.90;;;;;;5015849;28;20213;-53
2022/05/12 02:10:50;;;;;;;2.03;0.93;;;12.90;99.90;;;;;;5009582;28;20204;-53
2022/05/12 02:13:20;;;;;;;1.63;1.20;;;13.00;99.90;;;;;;5013145;28;20369;-53
2022/05/12 02:15:48;;;;;;;2.50;1.00;;;13.10;99.90;;;;;;5018050;28;20216;-53
2022/05/12 02:18:18;;;;;;;2.83;1.20;;;13.00;99.90;;;;;;5016026;28;20640;-52
2022/05/12 02:20:45;;;;;;;3.07;1.83;;;12.90;99.90;;;;;;5011892;28;20199;-53
2022/05/12 02:23:12;;;;;;;2.13;1.30;;;13.00;99.90;;;;;;5010364;28;20361;-53
2022/05/12 02:25:39;;;;;;;2.33;1.27;;;13.10;99.90;;;;;;5013106;28;20208;-53
2022/05/12 02:28:06;;;;;;;6.17;2.07;;;13.10;99.90;;;;;;5017186;28;20223;-52
2022/05/12 02:30:33;;;;;;;4.43;1.43;;;13.10;99.90;;;;;;5016641;28;20201;-53
2022/05/12 02:33:00;;;;;;;4.70;1.40;;;13.00;99.90;;;;;;5019073;28;20207;-53
2022/05/12 02:35:29;;;;;;;4.43;1.70;;;12.90;99.90;;;;;;5018540;28;20202;-53
2022/05/12 02:37:55;;;;;;;6.67;1.87;;;12.70;99.90;;;;;;5018734;28;20446;-53
2022/05/12 02:40:25;;;;;;;3.67;1.63;;;12.80;99.90;;;;;;5021395;28;20296;-53
2022/05/12 02:42:52;;;;;;;13.07;2.07;;;12.70;99.90;;;;;;5021965;28;20220;-53
2022/05/12 02:45:19;;;;;;;7.47;1.77;;;12.70;99.90;;;;;;5015460;28;20204;-53
2022/05/12 02:47:46;;;;;;;3.87;1.53;;;12.70;99.90;;;;;;5020933;28;20310;-52
2022/05/12 02:50:14;;;;;;;4.70;1.57;;;12.80;99.90;;;;;;5018775;28;20293;-53
2022/05/12 02:52:42;;;;;;;3.33;1.50;;;12.90;99.90;;;;;;5018866;28;20222;-53
2022/05/12 02:55:10;;;;;;;4.30;1.47;;;12.70;99.90;;;;;;5017277;28;20335;-53
2022/05/12 02:57:39;;;;;;;3.07;1.60;;;12.50;99.90;;;;;;5020192;28;20241;-53
2022/05/12 03:00:10;;;;;;;7.53;1.57;;;12.50;99.90;;;;;;5019870;28;20293;-53
2022/05/12 03:02:37;;;;;;;5.33;1.40;;;12.60;99.90;;;;;;5021832;28;20198;-53
2022/05/12 03:05:04;;;;;;;5.67;2.17;;;12.70;99.90;;;;;;5018991;28;20719;-53
2022/05/12 03:07:33;;;;;;;5.73;1.90;;;12.60;99.90;;;;;;5018450;28;20206;-53
2022/05/12 03:10:00;;;;;;;7.17;2.00;;;12.50;99.90;;;;;;5021384;28;20217;-52
2022/05/12 03:12:27;;;;;;;4.40;1.60;;;12.50;99.90;;;;;;5008414;28;20316;-52
2022/05/12 03:14:54;;;;;;;3.83;2.10;;;12.30;99.90;;;;;;5019354;28;20293;-53
2022/05/12 03:17:21;;;;;;;6.17;1.90;;;12.20;99.90;;;;;;5020536;28;20221;-52
2022/05/12 03:19:48;;;;;;;3.90;1.70;;;12.40;99.90;;;;;;5013417;28;20224;-52
2022/05/12 03:22:15;;;;;;;6.30;2.30;;;12.50;99.90;;;;;;5019365;28;20219;-53
2022/05/12 03:24:42;;;;;;;5.00;1.93;;;12.50;99.90;;;;;;5014737;28;20242;-53
2022/05/12 03:27:10;;;;;;;3.47;1.90;;;12.50;99.90;;;;;;5017713;28;21252;-53
2022/05/12 03:29:37;;;;;;;4.10;2.00;;;12.50;99.90;;;;;;5017013;28;20286;-53
2022/05/12 03:32:06;;;;;;;7.40;2.60;;;12.40;99.90;;;;;;5019573;28;20281;-53
2022/05/12 03:34:33;;;;;;;7.33;2.23;;;12.30;99.90;;;;;;5016563;28;20298;-53
2022/05/12 03:37:00;;;;;;;7.00;2.30;;;12.10;99.90;;;;;;5020398;28;20285;-53
2022/05/12 03:39:27;;;;;;;6.10;2.03;;;12.10;99.90;;;;;;5014000;28;20204;-52
2022/05/12 03:41:53;;;;;;;6.83;2.30;;;12.40;99.90;;;;;;5020114;28;20234;-52
2022/05/12 03:47:06;;;;;;;7.47;2.17;;;12.40;99.90;;;;;;5017117;28;20236;-53
2022/05/12 03:49:32;;;;;;;6.77;2.30;;;12.50;99.90;;;;;;5017490;28;20751;-54
2022/05/12 03:51:59;;;;;;;10.97;3.47;;;12.20;99.90;;;;;;5018672;28;20216;-53
2022/05/12 03:54:26;;;;;;;3.63;2.33;;;12.10;99.90;;;;;;5014493;28;20648;-52
2022/05/12 03:56:53;;;;;;;7.73;3.03;;;12.30;99.90;;;;;;5018300;28;20252;-53
2022/05/12 03:59:19;;;;;;;9.70;2.80;;;12.10;99.90;;;;;;5015215;28;20240;-52
2022/05/12 04:01:46;;;;;;;7.00;2.60;;;12.20;99.90;;;;;;5011812;28;20585;-53
2022/05/12 04:04:13;;;;;;;9.60;3.00;;;12.30;99.90;;;;;;5014120;28;20204;-52
2022/05/12 04:06:42;;;;;;;8.20;2.83;;;12.20;99.90;;;;;;5014043;28;20204;-55
2022/05/12 04:09:08;;;;;;;8.57;2.93;;;12.10;99.90;;;;;;5020220;28;20754;-53
2022/05/12 04:11:35;;;;;;;12.17;4.40;;;12.30;99.90;;;;;;5022060;28;20286;-52
2022/05/12 04:14:04;;;;;;;9.47;3.77;;;12.20;99.90;;;;;;5018529;28;20620;-53
2022/05/12 04:16:32;;;;;;;8.07;3.37;;;12.30;99.90;;;;;;5017041;28;20218;-53
2022/05/12 04:18:59;;;;;;;10.03;3.13;;;12.40;99.90;;;;;;5015308;28;20705;-53
2022/05/12 04:21:26;;;;;;;12.80;3.80;;;12.50;99.90;;;;;;5016143;28;20292;-54
2022/05/12 04:23:53;;;;;;;10.03;3.70;;;12.50;99.90;;;;;;5014676;28;20689;-53
2022/05/12 04:26:20;;;;;;;8.83;4.00;;;12.30;99.90;;;;;;5019594;28;20212;-53
2022/05/12 04:28:47;;;;;;;9.10;4.23;;;12.40;99.90;;;;;;5017217;28;20300;-53
2022/05/12 04:31:13;;;;;;;9.97;4.53;;;12.40;99.90;;;;;;5022262;28;20552;-53
2022/05/12 04:36:26;;;;;;;17.67;6.57;;;12.40;99.90;;;;;;5018712;28;20226;-53
2022/05/12 04:38:53;;;;;;;9.43;5.13;;;12.30;99.90;;;;;;5016769;28;20203;-52
2022/05/12 04:41:19;;;;;;;11.97;5.70;;;12.30;99.90;;;;;;5015948;28;20283;-53
2022/05/12 04:43:46;;;;;;;11.37;6.07;;;12.10;99.90;;;;;;5018905;28;20224;-53
2022/05/12 04:46:13;;;;;;;17.00;5.97;;;12.10;99.90;;;;;;5016066;28;20878;-53
2022/05/12 04:48:40;;;;;;;16.30;5.93;;;12.10;99.90;;;;;;5016855;28;20244;-53
2022/05/12 04:51:08;;;;;;;14.23;5.63;;;12.20;99.90;;;;;;5021361;28;20665;-52
2022/05/12 04:53:35;;;;;;;15.97;6.57;;;12.10;99.90;;;;;;5014642;28;20233;-52
2022/05/12 04:56:02;;;;;;;13.20;6.27;;;12.20;99.90;;;;;;5021894;28;20238;-53
2022/05/12 04:58:28;;;;;;;14.33;6.53;;;12.40;99.90;;;;;;5016712;28;20240;-53
2022/05/12 05:00:55;;;;;;;13.73;6.77;;;12.40;99.90;;;;;;5017998;28;20230;-52
2022/05/12 05:03:23;;;;;;;14.23;6.80;;;12.40;99.90;;;;;;5014092;28;20327;-53
2022/05/12 05:05:50;;;;;;;19.57;7.63;;;12.50;99.90;;;;;;5016035;28;20207;-53
2022/05/12 05:08:20;;;;;;;16.87;7.80;;;12.60;99.90;;;;;;5016063;28;20663;-53
2022/05/12 05:10:47;;;;;;;16.47;8.10;;;12.60;99.90;;;;;;5019508;28;20199;-52
2022/05/12 05:13:14;;;;;;;18.43;7.63;;;12.60;99.90;;;;;;5020338;28;20422;-52
2022/05/12 05:15:41;;;;;;;16.27;7.53;;;12.40;99.90;;;;;;5018495;28;20197;-53
2022/05/12 05:18:13;;;;;;;19.97;8.00;;;12.50;99.90;;;;;;5018291;28;20305;-52
2022/05/12 05:20:41;;;;;;;16.60;7.77;;;12.60;99.90;;;;;;5015675;28;20205;-53
2022/05/12 05:23:10;;;;;;;13.93;8.03;;;12.70;99.90;;;;;;5019012;28;20225;-53
2022/05/12 05:25:37;;;;;;;17.57;8.57;;;12.70;99.90;;;;;;5018384;28;20669;-52
2022/05/12 05:28:04;;;;;;;24.70;8.90;;;12.80;99.90;;;;;;5015273;28;20278;-53
2022/05/12 05:30:32;;;;;;;20.10;8.50;;;12.90;99.90;;;;;;5016691;28;20684;-53
2022/05/12 05:32:59;;;;;;;17.47;9.50;;;13.00;99.90;;;;;;5018463;28;20227;-54
2022/05/12 05:35:26;;;;;;;19.07;8.80;;;13.00;99.90;;;;;;5022592;28;20236;-53
2022/05/12 05:37:53;;;;;;;16.33;8.97;;;13.10;99.90;;;;;;5017893;28;20288;-53
2022/05/12 05:40:25;;;;;;;16.87;8.77;;;13.20;99.90;;;;;;5020688;28;20225;-53
2022/05/12 05:42:53;;;;;;;17.07;9.37;;;13.30;99.90;;;;;;5019627;28;20210;-53
2022/05/12 05:45:21;;;;;;;19.47;8.73;;;13.40;99.90;;;;;;5016983;28;20269;-52
2022/05/12 05:48:01;;;;;;;18.03;10.10;;;13.30;99.90;;;;;;5016646;28;20233;-53
2022/05/12 05:53:23;;;;;;;19.70;9.87;;;13.20;99.90;;;;;;5018068;28;20292;-53
2022/05/12 05:53:23;;;;;;;20.17;10.03;;;13.10;99.90;;;;;;5019386;28;20650;-53
2022/05/12 05:55:56;;;;;;;22.63;10.97;;;13.20;99.90;;;;;;5017107;28;20231;-53
2022/05/12 05:58:25;;;;;;;20.27;9.80;;;13.30;99.90;;;;;;5014419;28;20292;-52
2022/05/12 06:00:54;;;;;;;21.43;9.60;;;13.40;99.90;;;;;;5012540;28;20255;-53
2022/05/12 06:03:22;;;;;;;19.70;9.83;;;13.30;99.90;;;;;;5017223;28;20210;-52
2022/05/12 06:05:49;;;;;;;20.50;9.70;;;13.50;99.90;;;;;;5019423;28;20257;-54
2022/05/12 06:08:17;;;;;;;15.30;8.33;;;13.60;99.90;;;;;;5025250;28;20250;-54
2022/05/12 06:10:45;;;;;;;17.03;8.40;;;13.50;99.90;;;;;;5025006;28;20247;-52
2022/05/12 06:13:13;;;;;;;14.97;8.53;;;13.50;99.90;;;;;;5022738;28;20205;-52
2022/05/12 06:15:40;;;;;;;20.90;8.83;;;13.60;99.90;;;;;;5024775;28;20537;-53
2022/05/12 06:18:09;;;;;;;15.47;7.87;;;13.60;99.90;;;;;;5022441;28;20280;-53
2022/05/12 06:20:40;;;;;;;18.53;8.97;;;13.90;99.90;;;;;;5019351;28;20198;-53
2022/05/12 06:23:06;;;;;;;16.13;7.63;;;13.80;99.90;;;;;;5018731;28;20249;-54
2022/05/12 06:25:33;;;;;;;16.63;7.37;;;13.90;99.90;;;;;;5020279;28;20210;-53
2022/05/12 06:28:00;;;;;;;15.13;8.13;;;13.90;99.90;;;;;;5006702;28;20241;-54
2022/05/12 06:30:29;;;;;;;12.30;7.00;;;13.90;99.90;;;;;;5012719;28;20633;-53
2022/05/12 06:32:56;;;;;;;17.57;7.87;;;14.20;99.90;;;;;;5016414;28;20211;-52
2022/05/12 06:35:25;;;;;;;12.37;7.23;;;14.30;99.90;;;;;;5017296;28;20218;-53
2022/05/12 06:37:53;;;;;;;10.00;6.07;;;14.40;99.90;;;;;;5014688;28;20225;-53
2022/05/12 06:40:20;;;;;;;11.07;5.90;;;14.80;99.90;;;;;;5020525;28;20753;-53
2022/05/12 06:42:50;;;;;;;15.07;6.40;;;14.80;99.90;;;;;;5015177;28;20234;-53
2022/05/12 06:45:20;;;;;;;10.90;6.00;;;14.80;99.90;;;;;;5014592;28;20798;-53
2022/05/12 06:47:50;;;;;;;15.00;6.50;;;15.10;99.90;;;;;;5014174;28;20202;-53
2022/05/12 06:50:20;;;;;;;15.53;7.13;;;15.20;99.90;;;;;;5021584;28;20337;-52
2022/05/12 06:52:48;;;;;;;12.83;6.00;;;15.30;99.90;;;;;;5019657;28;20631;-52
2022/05/12 06:55:15;;;;;;;9.03;5.13;;;15.30;99.90;;;;;;5023275;28;20249;-53
2022/05/12 06:57:42;;;;;;;12.43;5.60;;;15.30;99.90;;;;;;5015228;28;20294;-52
2022/05/12 07:00:13;;;;;;;9.43;5.40;;;15.50;99.90;;;;;;5025219;28;20259;-53
2022/05/12 07:02:40;;;;;;;9.20;4.90;;;15.80;99.90;;;;;;5017350;28;20198;-53
2022/05/12 07:05:08;;;;;;;9.93;4.50;;;15.50;99.90;;;;;;5015592;28;20336;-52
2022/05/12 07:07:36;;;;;;;8.40;3.47;;;15.60;99.90;;;;;;5015288;28;20211;-52
2022/05/12 07:10:04;;;;;;;7.13;3.40;;;16.00;99.90;;;;;;5022156;28;20684;-53
2022/05/12 07:12:31;;;;;;;11.67;4.00;;;15.80;99.90;;;;;;5035480;28;20206;-53
2022/05/12 07:14:58;;;;;;;6.03;3.40;;;15.70;99.90;;;;;;5027258;28;20571;-53
2022/05/12 07:17:25;;;;;;;10.00;3.60;;;16.00;99.90;;;;;;5031424;28;20913;-53
2022/05/12 07:26:34;;;;;;;6.93;3.90;;;16.20;99.90;;;;;;5026715;28;20204;-52
2022/05/12 07:28:10;;;;;;;9.73;4.00;;;16.30;99.90;;;;;;5028865;28;20897;-54
2022/05/12 07:31:00;;;;;;;10.40;3.83;;;16.10;99.90;;;;;;5033938;28;20208;-54
2022/05/12 07:33:23;;;;;;;8.40;4.07;;;16.30;99.90;;;;;;5018939;28;20291;-53
2022/05/12 07:35:50;;;;;;;8.30;4.43;;;16.60;99.90;;;;;;5025554;28;20234;-53
2022/05/12 07:38:17;;;;;;;7.23;3.77;;;16.50;99.90;;;;;;5018269;28;20210;-52
2022/05/12 07:40:43;;;;;;;9.83;3.87;;;16.70;99.90;;;;;;5018682;28;20648;-53
2022/05/12 07:43:10;;;;;;;7.73;3.83;;;16.60;99.90;;;;;;5020844;28;20200;-53
2022/05/12 07:45:37;;;;;;;8.73;4.03;;;16.90;99.90;;;;;;5015724;28;20213;-52
2022/05/12 07:48:04;;;;;;;8.70;3.57;;;17.00;99.90;;;;;;5016729;28;20208;-53
2022/05/12 07:50:31;;;;;;;6.43;3.73;;;16.70;99.90;;;;;;5012032;28;20616;-53
2022/05/12 07:52:58;;;;;;;9.80;4.03;;;16.90;99.90;;;;;;5017163;28;20350;-53
2022/05/12 07:55:25;;;;;;;5.03;3.43;;;16.80;99.90;;;;;;5019565;28;20248;-54
2022/05/12 07:57:52;;;;;;;6.93;3.90;;;16.90;99.90;;;;;;5030984;28;20596;-53
2022/05/12 08:00:19;;;;;;;7.03;3.57;;;16.90;99.90;;;;;;5028219;28;20547;-53
2022/05/12 08:02:46;;;;;;;7.37;3.57;;;16.70;99.90;;;;;;5026874;28;20204;-54
2022/05/12 08:05:13;;;;;;;6.43;3.43;;;16.40;99.90;;;;;;5025202;28;20296;-53
2022/05/12 08:07:39;;;;;;;6.80;4.17;;;16.10;99.90;;;;;;5030051;28;20755;-54
2022/05/12 08:10:07;;;;;;;4.33;3.10;;;16.20;99.90;;;;;;5025911;28;20227;-53
2022/05/12 08:12:35;;;;;;;7.70;3.50;;;16.50;99.90;;;;;;5023061;28;20623;-53
2022/05/12 08:15:02;;;;;;;7.73;3.87;;;16.50;99.90;;;;;;5022771;28;20196;-53
2022/05/12 08:17:28;;;;;;;8.93;3.60;;;16.70;99.90;;;;;;5028412;28;20250;-53
2022/05/12 08:19:55;;;;;;;11.60;5.13;;;17.20;99.90;;;;;;5026974;28;20196;-54
2022/05/12 08:22:24;;;;;;;12.53;3.73;;;17.20;99.90;;;;;;5024020;28;20260;-53
2022/05/12 08:24:51;;;;;;;5.43;3.63;;;16.60;99.90;;;;;;5020349;28;20569;-53
2022/05/12 08:27:18;;;;;;;7.07;3.50;;;16.90;99.90;;;;;;5026536;28;20281;-53
2022/05/12 08:29:45;;;;;;;7.40;3.50;;;17.50;99.90;;;;;;5023756;28;20250;-53
2022/05/12 08:32:12;;;;;;;5.00;2.70;;;17.70;99.90;;;;;;5033029;28;20312;-53
2022/05/12 08:34:38;;;;;;;2.90;1.97;;;17.10;99.90;;;;;;5026161;28;20188;-52
2022/05/12 08:37:05;;;;;;;2.87;1.80;;;16.70;99.90;;;;;;5024162;28;20279;-53
2022/05/12 08:39:33;;;;;;;4.10;2.20;;;16.60;99.90;;;;;;5026808;28;20205;-53
2022/05/12 08:42:19;;;;;;;3.93;2.20;;;16.80;99.90;;;;;;5023752;28;20236;-54
2022/05/12 08:44:46;;;;;;;5.87;1.77;;;17.10;99.90;;;;;;5023261;28;20588;-51
2022/05/12 08:47:18;;;;;;;4.43;1.63;;;16.70;99.90;;;;;;5020828;28;20293;-51
2022/05/12 08:49:50;;;;;;;3.07;1.47;;;17.30;99.90;;;;;;5023924;28;20283;-51
2022/05/12 08:52:22;;;;;;;2.40;1.43;;;17.80;99.90;;;;;;5022660;28;20235;-53
2022/05/12 08:55:10;;;;;;;5.83;1.43;;;18.00;99.90;;;;;;5028948;28;20297;-52
2022/05/12 08:57:52;;;;;;;2.57;1.10;;;18.70;99.90;;;;;;5030514;28;20311;-52
2022/05/12 09:00:20;;;;;;;4.13;1.13;;;18.50;99.90;;;;;;5026087;28;20212;-52
2022/05/12 09:03:14;;;;;;;4.03;1.07;;;19.00;99.90;;;;;;5033195;28;20255;-53
2022/05/12 09:05:58;;;;;;;4.30;1.40;;;19.50;99.90;;;;;;5021717;28;20204;-53
2022/05/12 09:08:57;;;;;;;3.77;1.10;;;18.90;99.90;;;;;;5019901;28;20691;-53
2022/05/12 09:11:47;;;;;;;3.77;1.20;;;18.80;99.90;;;;;;5028058;28;20250;-54
2022/05/12 09:14:22;;;;;;;4.50;1.03;;;18.80;99.90;;;;;;5033936;28;20651;-53
2022/05/12 09:16:52;;;;;;;3.50;2.30;;;18.90;99.90;;;;;;5024068;28;20285;-53
2022/05/12 09:19:19;;;;;;;3.80;1.37;;;18.80;99.90;;;;;;5023807;28;20204;-53
2022/05/12 09:21:46;;;;;;;5.00;1.23;;;19.10;99.90;;;;;;5024247;28;20664;-53
2022/05/12 09:24:13;;;;;;;1.47;0.93;;;18.70;99.90;;;;;;5030593;28;20645;-53
2022/05/12 09:26:44;;;;;;;5.10;1.10;;;18.40;99.90;;;;;;5033496;28;20199;-53
2022/05/12 09:29:13;;;;;;;3.63;1.00;;;18.20;99.90;;;;;;5026748;28;20300;-53
2022/05/12 09:31:43;;;;;;;2.63;1.07;;;18.30;99.90;;;;;;5027490;28;20842;-53
2022/05/12 09:34:21;;;;;;;4.33;0.87;;;17.80;99.90;;;;;;5030248;28;20629;-53
2022/05/12 09:36:49;;;;;;;6.07;1.00;;;17.90;99.90;;;;;;5023625;28;20192;-53
2022/05/12 09:39:37;;;;;;;2.67;1.00;;;18.40;99.90;;;;;;5028979;28;20680;-53
2022/05/12 09:42:09;;;;;;;3.13;0.90;;;18.40;99.90;;;;;;5034504;28;20239;-54
2022/05/12 09:44:36;;;;;;;2.77;1.20;;;18.30;99.90;;;;;;5025928;28;20204;-53
2022/05/12 09:47:11;;;;;;;2.70;0.90;;;18.10;99.90;;;;;;5028988;28;20208;-53
2022/05/12 09:49:40;;;;;;;3.57;0.70;;;17.90;99.90;;;;;;5031396;28;20595;-53
2022/05/12 09:52:19;;;;;;;2.30;1.10;;;17.50;99.90;;;;;;5030346;28;20215;-55
2022/05/12 09:54:46;;;;;;;2.60;1.03;;;17.70;99.90;;;;;;5033347;28;20270;-53
2022/05/12 09:57:21;;;;;;;1.60;1.00;;;18.00;99.90;;;;;;5028589;28;20594;-52
2022/05/12 09:59:55;;;;;;;4.80;1.30;;;18.20;99.90;;;;;;5019973;28;20323;-52
2022/05/12 10:08:24;;;;;;;4.30;1.03;;;18.20;99.90;;;;;;5028953;28;20201;-53
2022/05/12 10:10:57;;;;;;;1.33;0.77;;;18.40;99.90;;;;;;5029232;28;20209;-53
2022/05/12 10:13:39;;;;;;;5.10;0.93;;;18.30;99.90;;;;;;5027801;28;20257;-53
2022/05/12 10:16:07;;;;;;;2.77;1.10;;;18.20;99.90;;;;;;5028618;28;20605;-53
2022/05/12 10:18:43;;;;;;;3.50;0.90;;;17.80;99.90;;;;;;5027670;28;20264;-53
2022/05/12 10:21:34;;;;;;;1.60;0.80;;;17.70;99.90;;;;;;5027570;28;20208;-54
2022/05/12 10:24:21;;;;;;;5.70;1.13;;;17.70;99.90;;;;;;5026028;28;20297;-53
2022/05/12 10:26:54;;;;;;;2.83;0.90;;;17.70;99.90;;;;;;5026101;28;20209;-53
2022/05/12 10:29:45;;;;;;;3.63;1.40;;;17.90;99.90;;;;;;5025404;28;20307;-53
2022/05/12 10:32:46;;;;;;;3.77;1.00;;;18.30;99.90;;;;;;5030506;28;20696;-53
2022/05/12 10:35:38;;;;;;;1.97;0.90;;;18.60;99.90;;;;;;5027491;28;20221;-53
2022/05/12 10:38:17;;;;;;;5.40;1.63;;;18.90;99.90;;;;;;5028813;28;20259;-53
2022/05/12 10:40:56;;;;;;;2.17;0.80;;;18.90;99.90;;;;;;5023820;28;20287;-52
2022/05/12 10:43:42;;;;;;;2.53;0.97;;;19.00;99.90;;;;;;5028175;28;20628;-53
2022/05/12 10:46:26;;;;;;;2.47;0.80;;;19.00;99.90;;;;;;5016534;28;20261;-53
2022/05/12 10:49:10;;;;;;;3.20;1.40;;;19.40;99.90;;;;;;5023494;28;20202;-52
2022/05/12 10:51:37;;;;;;;1.30;0.80;;;19.30;99.90;;;;;;5021468;28;20255;-53
2022/05/12 10:54:27;;;;;;;3.20;1.00;;;19.20;99.90;;;;;;5021278;28;20306;-53
2022/05/12 10:57:24;;;;;;;1.53;0.70;;;18.90;99.90;;;;;;5012311;28;20238;-53
2022/05/12 11:00:22;;;;;;;3.80;0.77;;;18.70;99.90;;;;;;5016982;28;20828;-52
2022/05/12 11:02:55;;;;;;;2.63;0.80;;;18.70;99.90;;;;;;5023947;28;20211;-52
2022/05/12 11:05:28;;;;;;;2.40;0.80;;;19.00;99.90;;;;;;5029922;28;20287;-52
2022/05/12 11:08:23;;;;;;;2.27;0.80;;;19.10;99.90;;;;;;5018933;28;20624;-53
2022/05/12 11:10:55;;;;;;;3.20;0.90;;;19.10;99.90;;;;;;5016903;28;20300;-53
2022/05/12 11:13:43;;;;;;;2.50;1.00;;;18.80;99.90;;;;;;5017975;28;20298;-54
2022/05/12 11:16:57;;;;;;;2.23;0.80;;;19.10;99.90;;;;;;5025829;28;20228;-53
2022/05/12 11:19:25;;;;;;;2.27;1.00;;;18.80;99.90;;;;;;4989284;28;20206;-51
2022/05/12 11:22:21;;;;;;;3.77;0.97;;;18.50;99.90;;;;;;5018074;28;20232;-53
2022/05/12 11:25:14;;;;;;;2.97;0.80;;;18.60;99.90;;;;;;5014166;28;20654;-53
2022/05/12 11:27:53;;;;;;;1.50;0.97;;;18.80;99.90;;;;;;5003760;28;20221;-52
2022/05/12 11:30:29;;;;;;;3.53;1.10;;;18.60;99.90;;;;;;5016012;28;20299;-53
2022/05/12 11:33:27;;;;;;;1.77;0.80;;;19.00;99.90;;;;;;5018259;28;20735;-53
2022/05/12 11:35:54;;;;;;;1.87;0.90;;;19.00;99.90;;;;;;5012293;28;20253;-54
2022/05/12 11:38:37;;;;;;;2.50;0.80;;;19.40;99.90;;;;;;5010534;28;20647;-52
2022/05/12 11:41:06;;;;;;;4.37;1.10;;;19.70;99.90;;;;;;5019614;28;20841;-52
2022/05/12 11:46:25;;;;;;;3.23;0.70;;;20.40;99.90;;;;;;5015466;28;20602;-53
2022/05/12 11:48:57;;;;;;;2.50;0.83;;;20.80;99.90;;;;;;5012845;28;20248;-55
2022/05/12 11:52:02;;;;;;;1.50;0.73;;;20.30;99.90;;;;;;5015767;28;20729;-54
2022/05/12 11:54:37;;;;;;;1.73;0.80;;;19.90;99.90;;;;;;5015452;28;20231;-53
2022/05/12 11:57:24;;;;;;;3.30;1.33;;;19.50;99.90;;;;;;5013569;28;20626;-52
2022/05/12 11:59:59;;;;;;;3.23;1.00;;;19.40;99.90;;;;;;5008419;28;20292;-53
2022/05/12 12:02:29;;;;;;;4.00;1.40;;;19.60;99.90;;;;;;5010651;28;20283;-53
2022/05/12 12:04:59;;;;;;;4.03;1.20;;;19.70;99.90;;;;;;5013289;28;20203;-52
2022/05/12 12:07:32;;;;;;;3.07;0.90;;;19.50;99.90;;;;;;5018944;28;20225;-53
2022/05/12 12:10:08;;;;;;;1.43;0.70;;;19.30;99.90;;;;;;5015921;28;20256;-53
2022/05/12 12:12:41;;;;;;;1.03;0.80;;;19.90;99.90;;;;;;5019452;28;20285;-52
2022/05/12 12:15:26;;;;;;;1.93;0.67;;;20.20;99.90;;;;;;5016788;28;20610;-53
2022/05/12 12:17:53;;;;;;;3.40;1.10;;;20.40;99.90;;;;;;5019591;28;20305;-53
2022/05/12 12:20:29;;;;;;;1.27;0.73;;;20.40;99.90;;;;;;5014628;28;20279;-53
2022/05/12 12:23:22;;;;;;;1.37;0.80;;;20.20;99.90;;;;;;5015589;28;20230;-52
2022/05/12 12:26:27;;;;;;;3.80;1.00;;;20.30;99.90;;;;;;5017294;28;20666;-53
2022/05/12 12:29:13;;;;;;;2.37;0.87;;;19.80;99.90;;;;;;5022228;28;20707;-53
2022/05/12 12:31:47;;;;;;;1.57;0.70;;;20.30;99.90;;;;;;5016008;28;20243;-51
2022/05/12 12:34:17;;;;;;;3.23;1.10;;;20.20;99.90;;;;;;5014124;28;20203;-52
2022/05/12 12:37:05;;;;;;;2.47;0.80;;;20.10;99.90;;;;;;5015654;28;20207;-52
2022/05/12 12:39:32;;;;;;;1.83;0.83;;;20.00;99.90;;;;;;5018924;28;20330;-53
2022/05/12 12:42:30;;;;;;;1.20;0.60;;;20.50;99.90;;;;;;5019467;28;20269;-53
2022/05/12 12:45:04;;;;;;;2.33;0.97;;;21.00;99.90;;;;;;5030234;28;20217;-53
2022/05/12 12:47:49;;;;;;;2.87;1.00;;;20.90;99.90;;;;;;5020395;28;20196;-53
2022/05/12 12:50:41;;;;;;;5.17;1.07;;;20.10;99.90;;;;;;5021378;28;20257;-53
2022/05/12 12:56:33;;;;;;;4.03;1.33;;;20.30;99.90;;;;;;5018183;28;20222;-53
2022/05/12 12:59:16;;;;;;;2.60;0.83;;;20.50;99.90;;;;;;5016743;28;20289;-54
2022/05/12 13:01:50;;;;;;;2.13;0.80;;;20.20;99.90;;;;;;5014966;28;20206;-52
2022/05/12 13:04:26;;;;;;;2.33;1.00;;;19.70;99.90;;;;;;5014119;28;20202;-53
2022/05/12 13:06:57;;;;;;;2.00;1.00;;;19.60;99.90;;;;;;5015648;28;20242;-57
2022/05/12 13:09:34;;;;;;;2.30;1.00;;;19.60;99.90;;;;;;5020691;28;20614;-52
2022/05/12 13:12:22;;;;;;;3.17;0.80;;;20.10;99.90;;;;;;5018509;28;20300;-53
2022/05/12 13:14:51;;;;;;;1.93;1.00;;;20.30;99.90;;;;;;5022490;28;20246;-53
2022/05/12 13:17:30;;;;;;;1.43;0.93;;;20.60;99.90;;;;;;5019302;28;20199;-53
2022/05/12 13:19:59;;;;;;;3.77;1.20;;;20.50;99.90;;;;;;5020421;28;20200;-53
2022/05/12 13:22:34;;;;;;;3.07;1.07;;;20.40;99.90;;;;;;5022760;28;20216;-53
2022/05/12 13:25:01;;;;;;;1.67;1.07;;;20.70;99.90;;;;;;5021614;28;20226;-52
2022/05/12 13:27:35;;;;;;;1.90;1.10;;;20.60;99.90;;;;;;5022831;28;20604;-53
2022/05/12 13:30:20;;;;;;;3.20;1.10;;;21.10;99.90;;;;;;5025401;28;20214;-53
2022/05/12 13:32:52;;;;;;;3.67;1.53;;;21.30;99.90;;;;;;5021816;28;20295;-53